Time;durP1;ratioP1;P1;durP2;ratioP2;P2;SDS_P1;SDS_P2;PMS_P1;PMS_P2;Temp;Humidity;BMP_temperature;BMP_pressure;BME280_temperature;BME280_humidity;BME280_pressure;Samples;Min_cycle;Max_cycle;Signal;HPM_P1;HPM_P2
2023/06/26 00:00:31;;;;;;;1999.90;999.90;;;20.20;99.90;;;;;;5033376;28;20515;-71
2023/06/26 00:02:57;;;;;;;1999.90;999.90;;;20.20;99.90;;;;;;5031872;28;20488;-71
2023/06/26 00:05:23;;;;;;;1999.90;999.90;;;20.20;99.90;;;;;;5033365;28;20040;-71
2023/06/26 00:07:48;;;;;;;1999.90;999.90;;;20.10;99.90;;;;;;5033452;28;20028;-71
2023/06/26 00:10:14;;;;;;;1999.90;999.90;;;20.10;99.90;;;;;;5032830;28;20444;-71
2023/06/26 00:12:39;;;;;;;1999.90;999.90;;;20.10;99.90;;;;;;5033215;28;20030;-71
2023/06/26 00:15:07;;;;;;;1999.90;999.90;;;20.00;99.90;;;;;;5033551;28;20025;-71
2023/06/26 00:17:36;;;;;;;1999.90;999.90;;;20.00;99.90;;;;;;5032986;28;20025;-71
2023/06/26 00:20:03;;;;;;;1999.90;999.90;;;19.90;99.90;;;;;;5033416;28;20028;-71
2023/06/26 00:22:29;;;;;;;1999.90;999.90;;;19.80;99.90;;;;;;5033196;28;20447;-71
2023/06/26 00:24:54;;;;;;;1999.90;999.90;;;19.70;99.90;;;;;;5033194;28;20029;-72
2023/06/26 00:27:20;;;;;;;1999.90;999.90;;;19.60;99.90;;;;;;5033268;28;20065;-71
2023/06/26 00:29:46;;;;;;;1999.90;999.90;;;19.60;99.90;;;;;;5033130;28;20120;-71
2023/06/26 00:32:11;;;;;;;1999.90;999.90;;;19.50;99.90;;;;;;5033502;28;20068;-72
2023/06/26 00:34:37;;;;;;;1999.90;999.90;;;19.50;99.90;;;;;;5032925;28;20053;-71
2023/06/26 00:37:03;;;;;;;1999.90;999.90;;;19.60;99.90;;;;;;5033180;28;20036;-71
2023/06/26 00:39:29;;;;;;;1999.90;999.90;;;19.50;99.90;;;;;;5033511;28;20018;-71
2023/06/26 00:41:55;;;;;;;1999.90;999.90;;;19.50;99.90;;;;;;5033120;28;20422;-71
2023/06/26 00:44:21;;;;;;;1999.90;999.90;;;19.50;99.90;;;;;;5033306;28;20477;-71
2023/06/26 00:46:47;;;;;;;1999.90;999.90;;;19.50;99.90;;;;;;5030892;28;20032;-71
2023/06/26 00:49:13;;;;;;;1999.90;999.90;;;19.50;99.90;;;;;;5033131;28;20385;-71
2023/06/26 00:51:39;;;;;;;1999.90;999.90;;;19.40;99.90;;;;;;5033859;28;20043;-71
2023/06/26 00:54:05;;;;;;;1999.90;999.90;;;19.40;99.90;;;;;;5036590;28;20496;-71
2023/06/26 00:56:32;;;;;;;1999.90;999.90;;;19.40;99.90;;;;;;5036572;28;20029;-71
2023/06/26 00:58:58;;;;;;;1999.90;999.90;;;19.30;99.90;;;;;;5034505;28;20021;-71
2023/06/26 01:01:25;;;;;;;1999.90;999.90;;;19.30;99.90;;;;;;5036670;28;20036;-71
2023/06/26 01:03:52;;;;;;;1999.90;999.90;;;19.30;99.90;;;;;;5037479;28;20369;-71
2023/06/26 01:06:22;;;;;;;1999.90;999.90;;;19.20;99.90;;;;;;5036698;28;20483;-71
2023/06/26 01:08:48;;;;;;;1999.90;999.90;;;19.20;99.90;;;;;;5036378;28;20383;-71
2023/06/26 01:11:14;;;;;;;1999.90;999.90;;;19.20;99.90;;;;;;5036896;28;20022;-71
2023/06/26 01:13:43;;;;;;;1999.90;999.90;;;19.20;99.90;;;;;;5036579;28;20523;-71
2023/06/26 01:16:10;;;;;;;1999.90;999.90;;;19.20;99.90;;;;;;5036627;28;20029;-71
2023/06/26 01:18:42;;;;;;;1999.90;999.90;;;19.20;99.90;;;;;;5036515;28;20345;-71
2023/06/26 01:21:09;;;;;;;1999.90;999.90;;;19.20;99.90;;;;;;5036327;28;20033;-71
2023/06/26 01:24:05;;;;;;;1999.90;999.90;;;19.20;99.90;;;;;;5036370;28;20400;-71
2023/06/26 01:26:35;;;;;;;1999.90;999.90;;;19.10;99.90;;;;;;5035200;28;20480;-72
2023/06/26 01:29:02;;;;;;;1999.90;999.90;;;19.10;99.90;;;;;;5036276;28;20037;-71
2023/06/26 01:31:30;;;;;;;1999.90;999.90;;;19.10;99.90;;;;;;5035755;28;20025;-71
2023/06/26 01:33:59;;;;;;;1999.90;999.90;;;19.10;99.90;;;;;;5036281;28;20017;-71
2023/06/26 01:36:25;;;;;;;1999.90;999.90;;;19.10;99.90;;;;;;5035795;28;20029;-71
2023/06/26 01:38:51;;;;;;;1999.90;999.90;;;19.10;99.90;;;;;;5035801;28;20044;-71
2023/06/26 01:41:17;;;;;;;1999.90;999.90;;;19.10;99.90;;;;;;5035920;28;20030;-71
2023/06/26 01:44:01;;;;;;;1999.90;999.90;;;19.10;99.90;;;;;;5034439;28;20021;-71
2023/06/26 01:46:54;;;;;;;1999.90;999.90;;;19.10;99.90;;;;;;5035705;28;20036;-71
2023/06/26 01:49:30;;;;;;;1999.90;999.90;;;19.00;99.90;;;;;;5035262;28;20508;-71
2023/06/26 01:52:22;;;;;;;1999.90;999.90;;;18.90;99.90;;;;;;5016285;28;20026;-71
2023/06/26 01:55:11;;;;;;;1999.90;999.90;;;18.80;99.90;;;;;;5016026;28;20026;-71
2023/06/26 01:57:39;;;;;;;1999.90;999.90;;;18.80;99.90;;;;;;5028120;28;20053;-72
2023/06/26 02:00:09;;;;;;;1999.90;999.90;;;18.70;99.90;;;;;;5035032;28;20419;-71
2023/06/26 02:02:36;;;;;;;1999.90;999.90;;;18.70;99.90;;;;;;5035081;28;20030;-71
2023/06/26 02:05:01;;;;;;;1999.90;999.90;;;18.60;99.90;;;;;;5035775;28;20116;-71
2023/06/26 02:07:27;;;;;;;1999.90;999.90;;;18.60;99.90;;;;;;5035220;28;20108;-71
2023/06/26 02:09:53;;;;;;;1999.90;999.90;;;18.60;99.90;;;;;;5035211;28;20029;-71
2023/06/26 02:12:18;;;;;;;1999.90;999.90;;;18.60;99.90;;;;;;5034145;28;20022;-71
2023/06/26 02:14:44;;;;;;;1999.90;999.90;;;18.50;99.90;;;;;;5035348;28;20065;-72
2023/06/26 02:17:10;;;;;;;1999.90;999.90;;;18.50;99.90;;;;;;5036102;28;20025;-71
2023/06/26 02:19:36;;;;;;;1999.90;999.90;;;18.50;99.90;;;;;;5035369;28;20448;-71
2023/06/26 02:22:01;;;;;;;1999.90;999.90;;;18.50;99.90;;;;;;5035095;28;20026;-71
2023/06/26 02:24:29;;;;;;;1999.90;999.90;;;18.50;99.90;;;;;;5035031;28;20018;-71
2023/06/26 02:26:56;;;;;;;1999.90;999.90;;;18.50;99.90;;;;;;5035075;28;20021;-71
2023/06/26 02:29:22;;;;;;;1999.90;999.90;;;18.40;99.90;;;;;;5034955;28;20103;-71
2023/06/26 02:31:48;;;;;;;1999.90;999.90;;;18.40;99.90;;;;;;5034977;28;20056;-71
2023/06/26 02:34:14;;;;;;;1999.90;999.90;;;18.40;99.90;;;;;;5035134;28;20017;-71
2023/06/26 02:36:40;;;;;;;1999.90;999.90;;;18.30;99.90;;;;;;5035141;28;20039;-71
2023/06/26 02:39:05;;;;;;;1999.90;999.90;;;18.30;99.90;;;;;;5035108;28;20037;-71
2023/06/26 02:41:31;;;;;;;1999.90;999.90;;;18.20;99.90;;;;;;5034966;28;20485;-71
2023/06/26 02:43:57;;;;;;;1999.90;999.90;;;18.20;99.90;;;;;;5034423;28;20029;-71
2023/06/26 02:46:22;;;;;;;1999.90;999.90;;;18.10;99.90;;;;;;5034532;28;20025;-71
2023/06/26 02:48:48;;;;;;;1999.90;999.90;;;18.10;99.90;;;;;;5034497;28;20030;-71
2023/06/26 02:51:13;;;;;;;1999.90;999.90;;;18.10;99.90;;;;;;5034349;28;20020;-71
2023/06/26 02:53:39;;;;;;;1999.90;999.90;;;18.00;99.90;;;;;;5034526;28;20036;-71
2023/06/26 02:56:05;;;;;;;1999.90;999.90;;;18.00;99.90;;;;;;5034502;28;20029;-71
2023/06/26 02:58:30;;;;;;;1999.90;999.90;;;18.00;99.90;;;;;;5034434;28;20080;-71
2023/06/26 03:00:56;;;;;;;1999.90;999.90;;;17.90;99.90;;;;;;5033716;28;20061;-72
2023/06/26 03:03:22;;;;;;;1999.90;999.90;;;17.90;99.90;;;;;;5034531;28;20034;-72
2023/06/26 03:05:47;;;;;;;1999.90;999.90;;;17.90;99.90;;;;;;5034698;28;20384;-71
2023/06/26 03:08:13;;;;;;;1999.90;999.90;;;17.80;99.90;;;;;;5033869;28;20036;-71
2023/06/26 03:10:38;;;;;;;1999.90;999.90;;;17.80;99.90;;;;;;5034076;28;20562;-71
2023/06/26 03:13:04;;;;;;;1999.90;999.90;;;17.80;99.90;;;;;;5033502;28;20053;-71
2023/06/26 03:15:29;;;;;;;1999.90;999.90;;;17.80;99.90;;;;;;5034001;28;20037;-71
2023/06/26 03:17:55;;;;;;;1999.90;999.90;;;17.70;99.90;;;;;;5034203;28;20029;-72
2023/06/26 03:20:21;;;;;;;1999.90;999.90;;;17.70;99.90;;;;;;5033980;28;20097;-72
2023/06/26 03:22:46;;;;;;;1999.90;999.90;;;17.70;99.90;;;;;;5034106;28;20419;-71
2023/06/26 03:25:12;;;;;;;1999.90;999.90;;;17.70;99.90;;;;;;5033859;28;20028;-72
2023/06/26 03:27:37;;;;;;;1999.90;999.90;;;17.70;99.90;;;;;;5032957;28;20033;-71
2023/06/26 03:30:03;;;;;;;1999.90;999.90;;;17.70;99.90;;;;;;5034146;28;20404;-71
2023/06/26 03:32:29;;;;;;;1999.90;999.90;;;17.70;99.90;;;;;;5033687;28;20108;-71
2023/06/26 03:34:54;;;;;;;1999.90;999.90;;;17.60;99.90;;;;;;5033328;28;20025;-71
2023/06/26 03:37:20;;;;;;;1999.90;999.90;;;17.70;99.90;;;;;;5033974;28;20025;-71
2023/06/26 03:39:46;;;;;;;1999.90;999.90;;;17.70;99.90;;;;;;5033823;28;20029;-71
2023/06/26 03:42:11;;;;;;;1999.90;999.90;;;17.60;99.90;;;;;;5034103;28;20058;-71
2023/06/26 03:44:37;;;;;;;1999.90;999.90;;;17.60;99.90;;;;;;5033505;28;20658;-71
2023/06/26 03:47:03;;;;;;;1999.90;999.90;;;17.60;99.90;;;;;;5033805;28;20033;-71
2023/06/26 03:49:28;;;;;;;1999.90;999.90;;;17.60;99.90;;;;;;5033293;28;20057;-71
2023/06/26 03:51:54;;;;;;;1999.90;999.90;;;17.50;99.90;;;;;;5033609;28;20037;-71
2023/06/26 03:54:19;;;;;;;1999.90;999.90;;;17.60;99.90;;;;;;5033647;28;20018;-71
2023/06/26 03:56:45;;;;;;;1999.90;999.90;;;17.50;99.90;;;;;;5033816;28;20053;-71
2023/06/26 03:59:11;;;;;;;1999.90;999.90;;;17.50;99.90;;;;;;5032427;28;20036;-71
2023/06/26 04:01:37;;;;;;;1999.90;999.90;;;17.50;99.90;;;;;;5032523;28;20500;-71
2023/06/26 04:04:03;;;;;;;1999.90;999.90;;;17.50;99.90;;;;;;5033449;28;20083;-71
2023/06/26 04:06:31;;;;;;;1999.90;999.90;;;17.50;99.90;;;;;;5033382;28;20033;-71
2023/06/26 04:08:57;;;;;;;1999.90;999.90;;;17.40;99.90;;;;;;5033105;28;20017;-71
2023/06/26 04:11:22;;;;;;;1999.90;999.90;;;17.40;99.90;;;;;;5033571;28;20021;-71
2023/06/26 04:13:48;;;;;;;1999.90;999.90;;;17.40;99.90;;;;;;5033300;28;20038;-71
2023/06/26 04:16:14;;;;;;;1999.90;999.90;;;17.40;99.90;;;;;;5032791;28;20068;-71
2023/06/26 04:18:39;;;;;;;1999.90;999.90;;;17.40;99.90;;;;;;5031936;28;20061;-71
2023/06/26 04:21:11;;;;;;;1999.90;999.90;;;17.30;99.90;;;;;;5031804;28;20033;-71
2023/06/26 04:23:38;;;;;;;1999.90;999.90;;;17.30;99.90;;;;;;5033336;28;20521;-71
2023/06/26 04:26:04;;;;;;;1999.90;999.90;;;17.30;99.90;;;;;;5033973;28;20056;-71
2023/06/26 04:28:32;;;;;;;1999.90;999.90;;;17.30;99.90;;;;;;5037062;28;20025;-71
2023/06/26 04:30:58;;;;;;;1999.90;999.90;;;17.30;99.90;;;;;;5037334;28;20029;-71
2023/06/26 04:33:25;;;;;;;1999.90;999.90;;;17.20;99.90;;;;;;5036927;28;20021;-71
2023/06/26 04:35:51;;;;;;;1999.90;999.90;;;17.20;99.90;;;;;;5037333;28;20095;-71
2023/06/26 04:38:16;;;;;;;1999.90;999.90;;;17.20;99.90;;;;;;5037493;28;20060;-71
2023/06/26 04:40:42;;;;;;;1999.90;999.90;;;17.10;99.90;;;;;;5037503;28;20029;-71
2023/06/26 04:43:08;;;;;;;1999.90;999.90;;;17.10;99.90;;;;;;5037169;28;20039;-71
2023/06/26 04:45:37;;;;;;;1999.90;999.90;;;17.20;99.90;;;;;;5036820;28;20034;-71
2023/06/26 04:48:02;;;;;;;1999.90;999.90;;;17.10;99.90;;;;;;5036790;28;20107;-71
2023/06/26 04:50:28;;;;;;;1999.90;999.90;;;17.10;99.90;;;;;;5036534;28;20048;-71
2023/06/26 04:52:55;;;;;;;1999.90;999.90;;;17.10;99.90;;;;;;5035859;28;20022;-71
2023/06/26 04:55:21;;;;;;;1999.90;999.90;;;17.10;99.90;;;;;;5035242;28;20028;-71
2023/06/26 04:57:47;;;;;;;1999.90;999.90;;;17.10;99.90;;;;;;5037238;28;20026;-71
2023/06/26 05:00:15;;;;;;;1999.90;999.90;;;17.10;99.90;;;;;;5035929;28;20036;-71
2023/06/26 05:02:40;;;;;;;1999.90;999.90;;;17.10;99.90;;;;;;5035251;28;20075;-71
2023/06/26 05:05:06;;;;;;;1999.90;999.90;;;17.10;99.90;;;;;;5035890;28;20045;-71
2023/06/26 05:07:35;;;;;;;1999.90;999.90;;;17.20;99.90;;;;;;5035496;28;20040;-71
2023/06/26 05:10:00;;;;;;;1999.90;999.90;;;17.20;99.90;;;;;;5042569;28;20443;-71
2023/06/26 05:12:26;;;;;;;1999.90;999.90;;;17.20;99.90;;;;;;5036748;28;20037;-71
2023/06/26 05:14:51;;;;;;;1999.90;999.90;;;17.20;99.90;;;;;;5035880;28;20500;-71
2023/06/26 05:17:17;;;;;;;1999.90;999.90;;;17.20;99.90;;;;;;5036566;28;20033;-71
2023/06/26 05:19:43;;;;;;;1999.90;999.90;;;17.20;99.90;;;;;;5051754;28;20402;-71
2023/06/26 05:22:09;;;;;;;1999.90;999.90;;;17.20;99.90;;;;;;5055382;28;20071;-71
2023/06/26 05:24:38;;;;;;;1999.90;999.90;;;17.20;99.90;;;;;;5035921;28;20021;-71
2023/06/26 05:27:05;;;;;;;1999.90;999.90;;;17.20;99.90;;;;;;5036036;28;20404;-71
2023/06/26 05:29:32;;;;;;;1999.90;999.90;;;17.20;99.90;;;;;;5049324;28;20021;-71
2023/06/26 05:31:58;;;;;;;1999.90;999.90;;;17.20;99.90;;;;;;5053240;28;20475;-71
2023/06/26 05:34:25;;;;;;;1999.90;999.90;;;17.20;99.90;;;;;;5035108;28;20032;-71
2023/06/26 05:36:51;;;;;;;1999.90;999.90;;;17.30;99.90;;;;;;5034655;28;20029;-71
2023/06/26 05:39:18;;;;;;;1999.90;999.90;;;17.20;99.90;;;;;;5035611;28;20029;-71
2023/06/26 05:41:44;;;;;;;1999.90;999.90;;;17.30;99.90;;;;;;5035105;28;20037;-72
2023/06/26 05:44:10;;;;;;;1999.90;999.90;;;17.30;99.90;;;;;;5034274;28;20117;-71
2023/06/26 05:46:36;;;;;;;1999.90;999.90;;;17.30;99.90;;;;;;5034978;28;20101;-71
2023/06/26 05:49:02;;;;;;;1999.90;999.90;;;17.40;99.90;;;;;;5024000;28;20076;-70
2023/06/26 05:51:28;;;;;;;1999.90;999.90;;;17.40;99.90;;;;;;5019619;28;20101;-71
2023/06/26 05:53:54;;;;;;;1999.90;999.90;;;17.40;99.90;;;;;;5031975;28;20109;-71
2023/06/26 05:56:20;;;;;;;1999.90;999.90;;;17.40;99.90;;;;;;5032893;28;20117;-71
2023/06/26 05:58:47;;;;;;;1999.90;999.90;;;17.50;99.90;;;;;;5034687;28;20031;-71
2023/06/26 06:01:12;;;;;;;1999.90;999.90;;;17.60;99.90;;;;;;5034335;28;20025;-71
2023/06/26 06:03:39;;;;;;;1999.90;999.90;;;17.60;99.90;;;;;;5040126;28;20423;-71
2023/06/26 06:06:05;;;;;;;1999.90;999.90;;;17.60;99.90;;;;;;5039176;28;20083;-71
2023/06/26 06:08:31;;;;;;;1999.90;999.90;;;17.70;99.90;;;;;;5033282;28;20021;-71
2023/06/26 06:10:56;;;;;;;1999.90;999.90;;;17.70;99.90;;;;;;5032863;28;20061;-71
2023/06/26 06:13:22;;;;;;;1999.90;999.90;;;17.80;99.90;;;;;;5033940;28;20045;-71
2023/06/26 06:15:47;;;;;;;1999.90;999.90;;;17.90;99.90;;;;;;5037568;28;20104;-72
2023/06/26 06:18:13;;;;;;;1999.90;999.90;;;17.90;99.90;;;;;;5053538;28;20031;-71
2023/06/26 06:20:38;;;;;;;1999.90;999.90;;;18.00;99.90;;;;;;5029028;28;20567;-71
2023/06/26 06:23:04;;;;;;;1999.90;999.90;;;18.00;99.90;;;;;;5029942;28;20033;-71
2023/06/26 06:25:30;;;;;;;1999.90;999.90;;;18.00;99.90;;;;;;5037013;28;20026;-71
2023/06/26 06:27:55;;;;;;;1999.90;999.90;;;18.10;99.90;;;;;;5033215;28;20024;-71
2023/06/26 06:30:24;;;;;;;1999.90;999.90;;;18.20;99.90;;;;;;5033163;28;20480;-71
2023/06/26 06:32:52;;;;;;;1999.90;999.90;;;18.20;99.90;;;;;;5040000;28;20042;-71
2023/06/26 06:35:18;;;;;;;1999.90;999.90;;;18.30;99.90;;;;;;5032650;28;20029;-71
2023/06/26 06:37:44;;;;;;;1999.90;999.90;;;18.40;99.90;;;;;;5031900;28;20116;-71
2023/06/26 06:40:10;;;;;;;1999.90;999.90;;;18.50;99.90;;;;;;5032217;28;20559;-71
2023/06/26 06:42:36;;;;;;;1999.90;999.90;;;18.60;99.90;;;;;;5031626;28;20029;-71
2023/06/26 06:45:06;;;;;;;1999.90;999.90;;;18.70;99.90;;;;;;5038162;28;20044;-71
2023/06/26 06:47:32;;;;;;;1999.90;999.90;;;18.70;99.90;;;;;;5046786;28;21250;-71
2023/06/26 06:50:07;;;;;;;1999.90;999.90;;;18.70;99.90;;;;;;5037932;28;20025;-71
2023/06/26 06:52:40;;;;;;;1999.90;999.90;;;18.80;99.90;;;;;;5034226;28;20025;-71
2023/06/26 06:55:08;;;;;;;1999.90;999.90;;;18.90;99.90;;;;;;5049413;28;20230;-71
2023/06/26 06:57:37;;;;;;;1999.90;999.90;;;19.00;99.90;;;;;;5038862;28;20464;-71
2023/06/26 07:00:11;;;;;;;1999.90;999.90;;;19.20;99.90;;;;;;5033617;28;20476;-71
2023/06/26 07:02:37;;;;;;;1999.90;999.90;;;19.30;99.90;;;;;;5029161;28;20511;-71
2023/06/26 07:05:03;;;;;;;1999.90;999.90;;;19.40;99.90;;;;;;5037083;28;20076;-71
2023/06/26 07:07:31;;;;;;;1999.90;999.90;;;19.50;99.90;;;;;;5030755;28;20041;-71
2023/06/26 07:09:59;;;;;;;1999.90;999.90;;;19.70;99.90;;;;;;5029502;28;20052;-71
2023/06/26 07:12:24;;;;;;;1999.90;999.90;;;19.90;99.90;;;;;;5033778;28;20021;-71
2023/06/26 07:14:50;;;;;;;1999.90;999.90;;;20.10;99.90;;;;;;5034965;28;20590;-71
2023/06/26 07:17:15;;;;;;;1999.90;999.90;;;20.30;99.90;;;;;;5030196;28;20033;-71
2023/06/26 07:19:41;;;;;;;1999.90;999.90;;;20.50;99.90;;;;;;5029976;28;20527;-71
2023/06/26 07:22:06;;;;;;;1999.90;999.90;;;20.60;99.90;;;;;;5030322;28;21142;-71
2023/06/26 07:24:32;;;;;;;1999.90;999.90;;;20.60;99.90;;;;;;5040117;28;20020;-71
2023/06/26 07:26:58;;;;;;;1999.90;999.90;;;20.40;99.90;;;;;;5049413;28;20491;-71
2023/06/26 07:29:23;;;;;;;1999.90;999.90;;;20.40;99.90;;;;;;5039585;28;20033;-71
2023/06/26 07:31:49;;;;;;;1999.90;999.90;;;20.70;99.90;;;;;;5037162;28;20025;-71
2023/06/26 07:34:14;;;;;;;1999.90;999.90;;;21.70;99.90;;;;;;5032920;28;20156;-72
2023/06/26 07:36:40;;;;;;;1999.90;999.90;;;23.90;99.90;;;;;;5029745;28;20083;-72
2023/06/26 07:39:06;;;;;;;1999.90;999.90;;;25.50;99.90;;;;;;5032030;28;20025;-72
2023/06/26 07:41:31;;;;;;;1999.90;999.90;;;26.70;99.90;;;;;;5047991;28;20507;-72
2023/06/26 07:43:58;;;;;;;1999.90;999.90;;;27.70;99.90;;;;;;5031975;28;20034;-72
2023/06/26 07:46:24;;;;;;;1999.90;999.90;;;28.20;99.90;;;;;;5031916;28;20033;-72
2023/06/26 07:48:49;;;;;;;1999.90;999.90;;;28.80;99.90;;;;;;5033054;28;20071;-72
2023/06/26 07:51:15;;;;;;;1999.90;999.90;;;29.20;99.90;;;;;;5029734;28;20037;-72
2023/06/26 07:53:41;;;;;;;1999.90;999.90;;;29.00;99.90;;;;;;5029653;28;20053;-73
2023/06/26 07:56:06;;;;;;;1999.90;999.90;;;29.60;99.90;;;;;;5029300;28;20034;-72
2023/06/26 07:58:32;;;;;;;1999.90;999.90;;;29.80;99.90;;;;;;5037320;28;20044;-72
2023/06/26 08:00:57;;;;;;;1999.90;999.90;;;29.50;99.90;;;;;;5029872;28;20098;-72
2023/06/26 08:03:23;;;;;;;1999.90;999.90;;;29.80;99.90;;;;;;5038139;28;20542;-72
2023/06/26 08:05:49;;;;;;;1999.90;999.90;;;30.10;99.90;;;;;;5032661;28;20088;-73
2023/06/26 08:08:15;;;;;;;1999.90;999.90;;;30.90;99.90;;;;;;5030111;28;20037;-73
2023/06/26 08:10:40;;;;;;;1999.90;999.90;;;30.70;99.90;;;;;;5033351;28;20076;-72
2023/06/26 08:13:06;;;;;;;1999.90;999.90;;;30.90;99.90;;;;;;5028388;28;20045;-73
2023/06/26 08:15:32;;;;;;;1999.90;999.90;;;29.50;99.90;;;;;;5026507;28;20044;-73
2023/06/26 08:17:57;;;;;;;1999.90;999.90;;;27.50;99.90;;;;;;5041686;28;20546;-72
2023/06/26 08:20:23;;;;;;;1999.90;999.90;;;25.40;99.90;;;;;;5033139;28;20025;-71
2023/06/26 08:22:51;;;;;;;1999.90;999.90;;;24.60;99.90;;;;;;5030375;28;20033;-72
2023/06/26 08:25:17;;;;;;;1999.90;999.90;;;26.70;99.90;;;;;;5033525;28;20086;-72
2023/06/26 08:27:42;;;;;;;1999.90;999.90;;;28.50;99.90;;;;;;5037752;28;20033;-73
2023/06/26 08:30:08;;;;;;;1999.90;999.90;;;29.90;99.90;;;;;;5038298;28;20457;-72
2023/06/26 08:32:34;;;;;;;1999.90;999.90;;;30.90;99.90;;;;;;5036657;28;20013;-72
2023/06/26 08:35:00;;;;;;;1999.90;999.90;;;31.20;99.90;;;;;;5030739;28;20591;-72
2023/06/26 08:37:25;;;;;;;1999.90;999.90;;;31.60;99.90;;;;;;5038498;28;20022;-71
2023/06/26 08:39:51;;;;;;;1999.90;999.90;;;29.40;99.90;;;;;;5038249;28;20033;-72
2023/06/26 08:42:16;;;;;;;1999.90;999.90;;;27.20;99.90;;;;;;5031765;28;20148;-72
2023/06/26 08:44:42;;;;;;;1999.90;999.90;;;26.80;99.90;;;;;;5033506;28;20029;-72
2023/06/26 08:47:11;;;;;;;1999.90;999.90;;;27.70;99.90;;;;;;5028265;28;20025;-72
2023/06/26 08:49:46;;;;;;;1999.90;999.90;;;28.50;99.90;;;;;;5031990;28;20030;-72
2023/06/26 08:52:23;;;;;;;1999.90;999.90;;;28.90;99.90;;;;;;5032365;28;20033;-74
2023/06/26 08:54:55;;;;;;;1999.90;999.90;;;29.80;99.90;;;;;;5030628;28;20443;-72
2023/06/26 08:57:23;;;;;;;1999.90;999.90;;;30.70;99.40;;;;;;5029417;28;20108;-75
2023/06/26 08:59:49;;;;;;;1999.90;999.90;;;31.20;98.40;;;;;;5032477;28;21825;-73
2023/06/26 09:02:15;;;;;;;1999.90;999.90;;;31.50;99.30;;;;;;5031998;28;20642;-72
2023/06/26 09:04:41;;;;;;;1999.90;999.90;;;29.70;99.90;;;;;;5028591;28;20394;-73
2023/06/26 09:07:07;;;;;;;1999.90;999.90;;;28.80;99.90;;;;;;5031377;28;20091;-72
2023/06/26 09:09:33;;;;;;;1999.90;999.90;;;29.00;99.90;;;;;;5038417;28;20392;-72
2023/06/26 09:11:59;;;;;;;1999.90;999.90;;;28.50;99.90;;;;;;5029961;28;20029;-72
2023/06/26 09:14:24;;;;;;;1999.90;999.90;;;28.30;99.90;;;;;;5031128;28;20045;-72
2023/06/26 09:16:50;;;;;;;1999.90;999.90;;;29.40;99.90;;;;;;5031219;28;20462;-73
2023/06/26 09:19:16;;;;;;;1999.90;999.90;;;30.10;99.90;;;;;;5047878;28;20040;-72
2023/06/26 09:21:43;;;;;;;1999.90;999.90;;;30.90;99.30;;;;;;5032233;28;20064;-72
2023/06/26 09:24:09;;;;;;;1999.90;999.90;;;31.20;98.50;;;;;;5036783;28;20045;-73
2023/06/26 09:26:40;;;;;;;1999.90;999.90;;;31.60;97.90;;;;;;5031270;28;20029;-72
2023/06/26 09:29:06;;;;;;;1999.90;999.90;;;33.10;96.60;;;;;;5042686;28;20048;-72
2023/06/26 09:31:33;;;;;;;1999.90;999.90;;;34.50;94.20;;;;;;5039490;28;20029;-73
2023/06/26 09:33:59;;;;;;;1999.90;999.90;;;30.90;95.40;;;;;;5038385;28;20083;-73
2023/06/26 09:36:32;;;;;;;1999.90;999.90;;;28.80;99.90;;;;;;5030939;28;20029;-72
2023/06/26 09:39:02;;;;;;;1999.90;999.90;;;29.00;99.90;;;;;;5032129;28;20063;-72
2023/06/26 09:41:28;;;;;;;1999.90;999.90;;;31.30;99.90;;;;;;5030480;28;20038;-73
2023/06/26 09:43:55;;;;;;;1999.90;999.90;;;32.50;98.90;;;;;;5037418;28;20089;-73
2023/06/26 09:46:27;;;;;;;1999.90;999.90;;;33.40;95.60;;;;;;5034002;28;20043;-73
2023/06/26 09:49:04;;;;;;;1999.90;999.90;;;33.20;94.50;;;;;;5036206;28;20044;-72
2023/06/26 09:51:34;;;;;;;1999.90;999.90;;;29.90;96.60;;;;;;5033764;28;20400;-72
2023/06/26 09:54:00;;;;;;;1999.90;999.90;;;27.60;99.90;;;;;;5034586;28;20059;-72
2023/06/26 09:56:27;;;;;;;1999.90;999.90;;;26.40;99.90;;;;;;5031597;28;20052;-72
2023/06/26 09:58:57;;;;;;;1999.90;999.90;;;25.70;99.90;;;;;;5031050;28;20041;-72
2023/06/26 10:01:26;;;;;;;1999.90;999.90;;;28.80;99.90;;;;;;5036055;28;20029;-72
2023/06/26 10:03:53;;;;;;;1999.90;999.90;;;29.10;98.80;;;;;;5036993;28;20041;-72
2023/06/26 10:06:24;;;;;;;1999.90;999.90;;;31.10;99.60;;;;;;5032903;28;20399;-72
2023/06/26 10:08:51;;;;;;;1999.90;999.90;;;31.90;96.50;;;;;;5035324;28;20030;-73
2023/06/26 10:11:20;;;;;;;1999.90;999.90;;;32.80;93.90;;;;;;5035558;28;20053;-73
2023/06/26 10:13:49;;;;;;;1999.90;999.90;;;33.10;94.00;;;;;;5033505;28;20045;-73
2023/06/26 10:16:21;;;;;;;1999.90;999.90;;;32.50;93.70;;;;;;5032676;28;20059;-73
2023/06/26 10:18:52;;;;;;;1999.90;999.90;;;32.20;93.80;;;;;;5039809;28;20025;-72
2023/06/26 10:21:19;;;;;;;1999.90;999.90;;;31.50;93.20;;;;;;5038847;28;20017;-72
2023/06/26 10:23:45;;;;;;;1999.90;999.90;;;31.70;92.70;;;;;;5030751;28;20124;-72
2023/06/26 10:26:13;;;;;;;1999.90;999.90;;;32.80;93.40;;;;;;5030556;28;20105;-72
2023/06/26 10:28:39;;;;;;;1999.90;999.90;;;33.40;91.70;;;;;;5034492;28;20044;-72
2023/06/26 10:31:07;;;;;;;1999.90;999.90;;;32.60;90.70;;;;;;5044049;28;20124;-72
2023/06/26 10:33:34;;;;;;;1999.90;999.90;;;33.00;90.20;;;;;;5031504;28;20072;-72
2023/06/26 10:36:19;;;;;;;1999.90;999.90;;;30.60;92.20;;;;;;5046949;28;20116;-72
2023/06/26 10:39:07;;;;;;;1999.90;999.90;;;28.90;94.60;;;;;;5031288;28;20112;-72
2023/06/26 10:41:43;;;;;;;1999.90;999.90;;;29.50;94.00;;;;;;5031889;28;20033;-72
2023/06/26 10:44:10;;;;;;;1999.90;999.90;;;31.20;93.70;;;;;;5031351;28;20036;-72
2023/06/26 10:46:56;;;;;;;1999.90;999.90;;;31.70;92.60;;;;;;5031422;28;20057;-72
2023/06/26 10:49:27;;;;;;;1999.90;999.90;;;32.80;91.90;;;;;;5029554;28;20028;-73
2023/06/26 10:51:55;;;;;;;1999.90;999.90;;;33.20;90.90;;;;;;5027826;28;20496;-72
2023/06/26 10:54:21;;;;;;;1999.90;999.90;;;33.70;92.40;;;;;;5038409;28;20147;-73
2023/06/26 10:56:48;;;;;;;1999.90;999.90;;;33.10;90.10;;;;;;5030387;28;20075;-73
2023/06/26 10:59:21;;;;;;;1999.90;999.90;;;32.10;90.30;;;;;;5031427;28;20029;-72
2023/06/26 11:01:55;;;;;;;1999.90;999.90;;;30.40;90.80;;;;;;5029982;28;20530;-73
2023/06/26 11:04:39;;;;;;;1999.90;999.90;;;29.80;91.60;;;;;;5031970;28;20029;-73
2023/06/26 11:07:21;;;;;;;1999.90;999.90;;;30.40;94.00;;;;;;5031669;28;20079;-72
2023/06/26 11:09:57;;;;;;;1999.90;999.90;;;31.70;92.60;;;;;;5031596;28;20388;-72
2023/06/26 11:12:42;;;;;;;1999.90;999.90;;;31.70;92.30;;;;;;5031996;28;20488;-76
2023/06/26 11:15:08;;;;;;;1999.90;999.90;;;32.10;91.60;;;;;;5031116;28;20215;-72
2023/06/26 11:17:35;;;;;;;1999.90;999.90;;;29.90;93.50;;;;;;5031818;28;20026;-70
2023/06/26 11:20:04;;;;;;;1999.90;999.90;;;28.00;98.90;;;;;;5030839;28;20366;-70
2023/06/26 11:22:31;;;;;;;1999.90;999.90;;;27.10;99.90;;;;;;5031386;28;20029;-71
2023/06/26 11:24:59;;;;;;;1999.90;999.90;;;25.90;99.90;;;;;;5038418;28;20032;-71
2023/06/26 11:27:50;;;;;;;1999.90;999.90;;;26.60;99.90;;;;;;5037067;28;20091;-73
2023/06/26 11:30:26;;;;;;;1999.90;999.90;;;28.80;99.90;;;;;;5046745;28;20478;-72
2023/06/26 11:32:52;;;;;;;1999.90;999.90;;;30.20;98.80;;;;;;5043123;28;20037;-71
2023/06/26 11:35:29;;;;;;;1999.90;999.90;;;27.60;99.50;;;;;;5029151;28;20400;-71
2023/06/26 11:38:01;;;;;;;1999.90;999.90;;;27.40;99.90;;;;;;5031575;28;20049;-72
2023/06/26 11:40:29;;;;;;;1999.90;999.90;;;28.20;99.90;;;;;;5029468;28;20034;-72
2023/06/26 11:42:55;;;;;;;1999.90;999.90;;;28.30;99.90;;;;;;5030261;28;20053;-72
2023/06/26 11:45:20;;;;;;;1999.90;999.90;;;27.20;99.90;;;;;;5030888;28;20037;-71
2023/06/26 11:47:46;;;;;;;1999.90;999.90;;;26.20;99.90;;;;;;5049506;28;20029;-70
2023/06/26 11:50:18;;;;;;;1999.90;999.90;;;26.10;99.90;;;;;;5032607;28;20500;-71
2023/06/26 11:52:45;;;;;;;1999.90;999.90;;;26.00;99.90;;;;;;5034596;28;20447;-72
2023/06/26 11:55:11;;;;;;;1999.90;999.90;;;26.00;99.90;;;;;;5030042;28;20038;-72
2023/06/26 11:57:37;;;;;;;1999.90;999.90;;;25.80;99.90;;;;;;5029814;28;20476;-71
2023/06/26 12:00:20;;;;;;;1999.90;999.90;;;25.50;99.90;;;;;;5016509;28;20052;-71